createdAt,value
2019-02-18T00:00:48.103Z,8.43
2019-02-18T00:03:16.451Z,7.90
2019-02-18T00:05:44.794Z,8.10
2019-02-18T00:08:13.146Z,7.87
2019-02-18T00:10:41.485Z,8.53
2019-02-18T00:13:09.825Z,8.00
2019-02-18T00:15:38.181Z,8.10
2019-02-18T00:18:06.546Z,8.47
2019-02-18T00:20:34.884Z,8.23
2019-02-18T00:23:03.245Z,8.47
2019-02-18T00:25:31.577Z,8.53
2019-02-18T00:27:59.917Z,8.10
2019-02-18T00:30:28.265Z,8.23
2019-02-18T00:32:56.607Z,8.10
2019-02-18T00:35:24.948Z,7.43
2019-02-18T00:37:53.290Z,8.30
2019-02-18T00:40:21.631Z,8.10
2019-02-18T00:42:49.981Z,8.87
2019-02-18T00:45:18.389Z,8.33
2019-02-18T00:47:48.156Z,8.20
2019-02-18T00:50:17.921Z,7.83
2019-02-18T00:52:46.273Z,8.40
2019-02-18T00:55:14.609Z,7.97
2019-02-18T00:57:42.957Z,8.17
2019-02-18T01:00:13.649Z,8.43
2019-02-18T01:02:42.053Z,9.00
2019-02-18T01:05:10.398Z,8.20
2019-02-18T01:07:38.739Z,7.47
2019-02-18T01:10:08.454Z,7.37
2019-02-18T01:12:36.798Z,8.33
2019-02-18T01:15:07.982Z,8.37
2019-02-18T01:17:36.334Z,8.97
2019-02-18T01:20:06.234Z,8.10
2019-02-18T01:22:34.568Z,7.63
2019-02-18T01:25:02.981Z,7.93
2019-02-18T01:27:32.585Z,7.70
2019-02-18T01:30:00.938Z,7.93
2019-02-18T01:32:29.282Z,8.53
2019-02-18T01:34:57.942Z,7.83
2019-02-18T01:37:26.285Z,7.57
2019-02-18T01:39:55.300Z,8.07
2019-02-18T01:42:23.884Z,7.57
2019-02-18T01:44:52.225Z,8.13
2019-02-18T01:47:20.563Z,8.60
2019-02-18T01:49:48.898Z,7.40
2019-02-18T01:52:17.242Z,8.43
2019-02-18T01:54:45.590Z,8.07
2019-02-18T01:57:13.934Z,7.27
2019-02-18T01:59:42.533Z,8.07
2019-02-18T02:02:10.870Z,7.87
2019-02-18T02:04:39.213Z,7.90
2019-02-18T02:07:07.578Z,7.57
2019-02-18T02:09:35.915Z,8.60
2019-02-18T02:12:04.338Z,8.60
2019-02-18T02:14:34.316Z,7.93
2019-02-18T02:17:02.729Z,7.60
2019-02-18T02:19:31.154Z,8.27
2019-02-18T02:21:59.477Z,8.90
2019-02-18T02:24:27.836Z,8.20
2019-02-18T02:26:56.174Z,7.57
2019-02-18T02:29:24.516Z,8.70
2019-02-18T02:31:52.857Z,8.77
2019-02-18T02:34:21.202Z,8.57
2019-02-18T02:36:49.554Z,8.03
2019-02-18T02:39:18.214Z,7.60
2019-02-18T02:41:46.536Z,8.33
2019-02-18T02:44:14.881Z,8.47
2019-02-18T02:46:43.226Z,8.00
2019-02-18T02:49:11.557Z,8.90
2019-02-18T02:51:39.914Z,8.80
2019-02-18T02:54:08.244Z,8.47
2019-02-18T02:56:37.378Z,8.57
2019-02-18T02:59:05.901Z,7.83
2019-02-18T03:01:34.274Z,8.10
2019-02-18T03:04:02.608Z,7.83
2019-02-18T03:06:31.026Z,8.77
2019-02-18T03:08:59.361Z,7.77
2019-02-18T03:11:28.042Z,8.23
2019-02-18T03:13:56.369Z,8.20
2019-02-18T03:16:24.720Z,8.17
2019-02-18T03:18:53.070Z,7.90
2019-02-18T03:21:21.410Z,8.20
2019-02-18T03:23:50.834Z,8.33
2019-02-18T03:26:19.184Z,8.50
2019-02-18T03:28:55.189Z,7.83
2019-02-18T03:31:24.706Z,8.13
2019-02-18T03:33:57.607Z,8.07
2019-02-18T03:36:25.937Z,8.10
2019-02-18T03:38:54.290Z,8.40
2019-02-18T03:41:22.690Z,7.80
2019-02-18T03:43:51.037Z,8.60
2019-02-18T03:46:19.405Z,8.27
2019-02-18T03:48:47.748Z,8.47
2019-02-18T03:51:16.081Z,7.87
2019-02-18T03:53:44.428Z,7.80
2019-02-18T03:56:12.769Z,8.60
2019-02-18T03:58:41.117Z,7.73
2019-02-18T04:01:09.444Z,8.30
2019-02-18T04:03:37.792Z,7.70
2019-02-18T04:06:07.389Z,7.83
2019-02-18T04:08:42.823Z,8.27
2019-02-18T04:11:05.779Z,7.63
2019-02-18T04:13:34.131Z,7.33
2019-02-18T04:16:02.472Z,7.93
2019-02-18T04:18:30.808Z,7.13
2019-02-18T04:20:59.152Z,7.67
2019-02-18T04:23:27.487Z,8.27
2019-02-18T04:25:55.841Z,7.13
2019-02-18T04:28:24.185Z,8.00
2019-02-18T04:30:52.525Z,8.00
2019-02-18T04:33:20.876Z,6.97
2019-02-18T04:35:49.213Z,7.40
2019-02-18T04:38:17.566Z,7.50
2019-02-18T04:40:45.913Z,7.40
2019-02-18T04:43:14.264Z,7.60
2019-02-18T04:45:42.605Z,7.93
2019-02-18T04:48:11.559Z,7.27
2019-02-18T04:50:40.774Z,8.60
2019-02-18T04:53:09.114Z,7.30
2019-02-18T04:55:37.455Z,8.37
2019-02-18T04:58:06.341Z,7.83
2019-02-18T05:00:34.825Z,8.47
2019-02-18T05:03:03.171Z,8.27
2019-02-18T05:05:32.687Z,8.13
2019-02-18T05:08:01.040Z,8.07
2019-02-18T05:10:29.383Z,7.80
2019-02-18T05:12:57.718Z,7.87
2019-02-18T05:15:26.055Z,7.90
2019-02-18T05:17:54.409Z,7.93
2019-02-18T05:20:22.761Z,8.77
2019-02-18T05:22:51.117Z,8.47
2019-02-18T05:25:19.470Z,7.97
2019-02-18T05:27:47.809Z,8.27
2019-02-18T05:30:16.155Z,7.80
2019-02-18T05:32:44.487Z,7.77
2019-02-18T05:35:12.829Z,7.97
2019-02-18T05:37:41.181Z,7.57
2019-02-18T05:40:10.599Z,8.10
2019-02-18T05:42:38.936Z,8.70
2019-02-18T05:45:07.850Z,8.27
2019-02-18T05:47:36.193Z,7.97
2019-02-18T05:50:05.306Z,8.50
2019-02-18T05:52:33.633Z,7.27
2019-02-18T05:55:02.035Z,8.33
2019-02-18T05:57:30.397Z,8.87
2019-02-18T05:59:58.750Z,8.33
2019-02-18T06:02:27.100Z,8.50
2019-02-18T06:04:55.466Z,8.70
2019-02-18T06:07:23.833Z,8.63
2019-02-18T06:09:52.170Z,8.90
2019-02-18T06:12:21.685Z,9.17
2019-02-18T06:14:50.096Z,7.90
2019-02-18T06:17:18.438Z,8.40
2019-02-18T06:19:46.777Z,9.03
2019-02-18T06:22:15.134Z,8.53
2019-02-18T06:24:43.462Z,8.70
2019-02-18T06:27:11.810Z,9.37
2019-02-18T06:29:40.175Z,9.23
2019-02-18T06:32:08.586Z,7.87
2019-02-18T06:34:37.365Z,8.90
2019-02-18T06:37:06.104Z,9.50
2019-02-18T06:39:41.483Z,8.90
2019-02-18T06:42:04.485Z,8.47
2019-02-18T06:44:34.465Z,8.80
2019-02-18T06:47:04.459Z,7.73
2019-02-18T06:49:34.433Z,8.47
2019-02-18T06:52:02.770Z,8.30
2019-02-18T06:54:31.118Z,7.97
2019-02-18T06:57:09.952Z,8.70
2019-02-18T06:59:39.929Z,8.53
2019-02-18T07:02:18.806Z,8.93
2019-02-18T07:04:48.782Z,8.70
2019-02-18T07:07:20.116Z,8.07
2019-02-18T07:09:51.458Z,8.07
2019-02-18T07:12:30.270Z,8.73
2019-02-18T07:14:58.610Z,8.33
2019-02-18T07:17:26.957Z,9.00
2019-02-18T07:19:55.321Z,8.03
2019-02-18T07:22:23.653Z,8.27
2019-02-18T07:24:51.985Z,8.07
2019-02-18T07:27:20.340Z,8.20
2019-02-18T07:29:48.678Z,8.07
2019-02-18T07:32:17.848Z,7.77
2019-02-18T07:34:46.196Z,7.57
2019-02-18T07:37:14.537Z,8.10
2019-02-18T07:39:42.878Z,7.93
2019-02-18T07:42:11.213Z,7.23
2019-02-18T07:44:39.561Z,8.90
2019-02-18T07:47:08.799Z,7.47
2019-02-18T07:49:37.143Z,7.07
2019-02-18T07:52:05.494Z,7.60
2019-02-18T07:54:33.858Z,7.73
2019-02-18T07:57:02.194Z,8.33
2019-02-18T07:59:30.541Z,8.57
2019-02-18T08:01:58.910Z,7.67
2019-02-18T08:04:27.256Z,7.23
2019-02-18T08:06:55.586Z,7.87
2019-02-18T08:09:25.605Z,7.23
2019-02-18T08:11:55.193Z,7.70
2019-02-18T08:14:23.579Z,7.43
2019-02-18T08:16:51.910Z,6.13
2019-02-18T08:19:20.241Z,6.90
2019-02-18T08:21:48.871Z,6.80
2019-02-18T08:24:17.209Z,7.30
2019-02-18T08:26:45.553Z,6.50
2019-02-18T08:29:13.911Z,6.83
2019-02-18T08:31:42.246Z,6.73
2019-02-18T08:34:10.579Z,6.83
2019-02-18T08:36:38.926Z,6.70
2019-02-18T08:39:07.262Z,7.23
2019-02-18T08:41:35.979Z,7.63
2019-02-18T08:44:06.860Z,6.57
2019-02-18T08:46:35.283Z,7.20
2019-02-18T08:49:03.685Z,7.03
2019-02-18T08:51:32.034Z,7.83
2019-02-18T08:54:00.407Z,6.93
2019-02-18T08:56:28.793Z,7.57
2019-02-18T08:58:57.154Z,7.73
2019-02-18T09:01:25.810Z,7.10
2019-02-18T09:03:55.735Z,7.20
2019-02-18T09:06:24.372Z,7.50
2019-02-18T09:08:52.718Z,6.80
2019-02-18T09:11:21.063Z,6.90
2019-02-18T09:13:49.403Z,7.80
2019-02-18T09:16:17.750Z,8.43
2019-02-18T09:18:47.478Z,8.40
2019-02-18T09:21:16.798Z,7.60
2019-02-18T09:23:56.328Z,7.67
2019-02-18T09:26:25.520Z,7.47
2019-02-18T09:28:53.895Z,7.97
2019-02-18T09:31:23.953Z,8.13
2019-02-18T09:33:52.290Z,7.90
2019-02-18T09:36:21.441Z,8.83
2019-02-18T09:38:50.246Z,7.33
2019-02-18T09:41:18.595Z,8.73
2019-02-18T09:43:46.937Z,7.60
2019-02-18T09:46:15.274Z,7.63
2019-02-18T09:48:43.730Z,7.80
2019-02-18T09:51:12.086Z,4.10
2019-02-18T09:53:40.488Z,8.70
2019-02-18T09:56:08.842Z,8.00
2019-02-18T09:58:37.196Z,8.97
2019-02-18T10:01:06.801Z,8.40
2019-02-18T10:03:35.224Z,9.40
2019-02-18T10:06:03.566Z,9.20
2019-02-18T10:08:31.928Z,6.63
2019-02-18T10:11:00.279Z,8.30
2019-02-18T10:13:28.665Z,8.83
2019-02-18T10:15:57.010Z,9.67
2019-02-18T10:18:25.378Z,8.90
2019-02-18T10:20:53.722Z,7.87
2019-02-18T10:23:22.061Z,9.53
2019-02-18T10:25:50.418Z,10.70
2019-02-18T10:28:18.769Z,9.47
2019-02-18T10:30:48.424Z,9.07
2019-02-18T10:33:16.761Z,9.90
2019-02-18T10:35:45.139Z,10.17
2019-02-18T10:38:13.494Z,10.93
2019-02-18T10:40:41.879Z,10.77
2019-02-18T10:43:10.261Z,11.30
2019-02-18T10:45:38.612Z,10.93
2019-02-18T10:48:11.620Z,11.57
2019-02-18T10:50:39.727Z,10.83
2019-02-18T10:53:08.080Z,10.97
2019-02-18T10:55:36.510Z,12.10
2019-02-18T10:58:04.838Z,10.40
2019-02-18T11:00:35.176Z,9.93
2019-02-18T11:03:03.538Z,10.67
2019-02-18T11:05:31.958Z,11.03
2019-02-18T11:08:00.306Z,9.03
2019-02-18T11:10:28.663Z,11.57
2019-02-18T11:12:57.014Z,10.60
2019-02-18T11:15:25.720Z,11.40
2019-02-18T11:17:54.072Z,11.60
2019-02-18T11:20:22.416Z,10.63
2019-02-18T11:22:50.764Z,9.90
2019-02-18T11:25:19.196Z,9.83
2019-02-18T11:27:47.524Z,9.50
2019-02-18T11:30:18.083Z,11.67
2019-02-18T11:32:46.439Z,10.47
2019-02-18T11:35:14.781Z,11.47
2019-02-18T11:37:43.215Z,10.53
2019-02-18T11:40:12.835Z,9.70
2019-02-18T11:42:41.265Z,8.17
2019-02-18T11:45:11.529Z,10.37
2019-02-18T11:47:39.866Z,9.97
2019-02-18T11:50:09.390Z,10.77
2019-02-18T11:52:37.750Z,9.97
2019-02-18T11:55:07.670Z,10.37
2019-02-18T11:57:38.093Z,10.03
2019-02-18T12:00:08.191Z,10.83
2019-02-18T12:02:36.544Z,9.80
2019-02-18T12:05:05.864Z,9.17
2019-02-18T12:07:34.202Z,9.23
2019-02-18T12:10:02.623Z,10.63
2019-02-18T12:12:32.410Z,10.10
2019-02-18T12:15:01.098Z,11.10
2019-02-18T12:17:29.750Z,11.00
2019-02-18T12:19:58.097Z,10.70
2019-02-18T12:22:26.455Z,10.87
2019-02-18T12:24:56.874Z,10.10
2019-02-18T12:27:29.066Z,9.63
2019-02-18T12:29:58.869Z,10.57
2019-02-18T12:32:27.208Z,11.23
2019-02-18T12:34:57.784Z,10.83
2019-02-18T12:37:26.143Z,20.87
2019-02-18T12:39:54.963Z,21.73
2019-02-18T12:42:23.321Z,22.30
2019-02-18T12:44:53.233Z,26.03
2019-02-18T12:47:23.231Z,19.47
2019-02-18T12:49:53.695Z,28.80
2019-02-18T12:52:27.552Z,21.93
2019-02-18T12:55:00.206Z,12.33
2019-02-18T12:57:27.785Z,13.53
2019-02-18T12:59:56.474Z,14.83
2019-02-18T13:02:24.949Z,16.60
2019-02-18T13:04:53.381Z,13.70
2019-02-18T13:07:21.860Z,12.27
2019-02-18T13:09:50.396Z,11.47
2019-02-18T13:12:18.825Z,13.70
2019-02-18T13:14:48.242Z,13.00
2019-02-18T13:17:16.673Z,14.93
2019-02-18T13:19:45.299Z,15.57
2019-02-18T13:22:13.650Z,15.20
2019-02-18T13:24:42.094Z,15.30
2019-02-18T13:27:10.522Z,14.30
2019-02-18T13:29:38.881Z,14.53
2019-02-18T13:32:07.306Z,13.73
2019-02-18T13:34:35.656Z,12.30
2019-02-18T13:37:04.237Z,13.20
2019-02-18T13:39:32.928Z,14.67
2019-02-18T13:42:07.347Z,14.53
2019-02-18T13:44:31.370Z,12.80
2019-02-18T13:46:59.708Z,13.13
2019-02-18T13:49:28.070Z,13.50
2019-02-18T13:51:56.991Z,11.57
2019-02-18T13:54:25.351Z,14.13
2019-02-18T13:56:53.709Z,10.77
2019-02-18T13:59:23.302Z,11.03
2019-02-18T14:01:51.697Z,11.53
2019-02-18T14:04:20.043Z,10.87
2019-02-18T14:06:49.075Z,11.30
2019-02-18T14:09:18.169Z,12.27
2019-02-18T14:11:46.742Z,11.60
2019-02-18T14:14:15.117Z,10.10
2019-02-18T14:16:43.470Z,10.83
2019-02-18T14:19:12.108Z,10.97
2019-02-18T14:21:40.605Z,10.93
2019-02-18T14:24:09.237Z,10.20
2019-02-18T14:26:37.594Z,11.60
2019-02-18T14:29:05.987Z,10.80
2019-02-18T14:31:34.351Z,11.43
2019-02-18T14:34:03.984Z,11.23
2019-02-18T14:36:32.377Z,11.43
2019-02-18T14:39:02.287Z,10.40
2019-02-18T14:41:32.228Z,9.53
2019-02-18T14:44:00.889Z,10.77
2019-02-18T14:46:29.223Z,9.97
2019-02-18T14:48:57.816Z,10.33
2019-02-18T14:51:26.310Z,10.27
2019-02-18T14:53:55.034Z,10.70
2019-02-18T14:56:23.385Z,10.80
2019-02-18T14:58:51.753Z,10.30
2019-02-18T15:01:20.110Z,9.30
2019-02-18T15:03:48.454Z,9.40
2019-02-18T15:06:16.784Z,9.87
2019-02-18T15:08:45.128Z,10.90
2019-02-18T15:11:13.647Z,9.17
2019-02-18T15:13:41.998Z,9.93
2019-02-18T15:16:10.376Z,9.77
2019-02-18T15:18:38.761Z,11.63
2019-02-18T15:21:07.167Z,11.10
2019-02-18T15:23:35.818Z,9.90
2019-02-18T15:26:04.830Z,10.67
2019-02-18T15:28:33.258Z,10.47
2019-02-18T15:31:01.922Z,11.07
2019-02-18T15:33:30.278Z,10.83
2019-02-18T15:35:58.944Z,9.80
2019-02-18T15:38:28.554Z,11.03
2019-02-18T15:40:57.600Z,10.70
2019-02-18T15:43:26.768Z,9.67
2019-02-18T15:45:55.342Z,10.67
2019-02-18T15:48:23.739Z,11.47
2019-02-18T15:50:52.177Z,11.03
2019-02-18T15:53:20.551Z,12.17
2019-02-18T15:55:49.062Z,11.23
2019-02-18T15:58:18.582Z,11.47
2019-02-18T16:00:47.006Z,10.57
2019-02-18T16:03:15.357Z,11.27
2019-02-18T16:05:43.697Z,11.03
2019-02-18T16:08:12.046Z,11.63
2019-02-18T16:10:40.401Z,10.20
2019-02-18T16:13:09.215Z,10.63
2019-02-18T16:15:39.628Z,11.03
2019-02-18T16:18:07.984Z,11.63
2019-02-18T16:20:36.330Z,11.83
2019-02-18T16:23:04.681Z,11.30
2019-02-18T16:25:33.096Z,12.63
2019-02-18T16:28:01.602Z,11.07
2019-02-18T16:30:31.626Z,11.17
2019-02-18T16:32:59.987Z,11.83
2019-02-18T16:35:28.894Z,11.63
2019-02-18T16:38:01.257Z,13.40
2019-02-18T16:40:29.353Z,11.53
2019-02-18T16:42:59.326Z,11.33
2019-02-18T16:45:27.878Z,11.20
2019-02-18T16:47:56.219Z,11.37
2019-02-18T16:50:25.302Z,11.53
2019-02-18T16:52:54.054Z,12.03
2019-02-18T16:55:22.669Z,12.10
2019-02-18T16:57:51.404Z,12.07
2019-02-18T17:00:24.359Z,11.97
2019-02-18T17:02:53.168Z,11.53
2019-02-18T17:05:21.574Z,12.07
2019-02-18T17:07:50.013Z,11.63
2019-02-18T17:10:18.445Z,12.03
2019-02-18T17:12:47.161Z,12.23
2019-02-18T17:15:17.124Z,12.00
2019-02-18T17:17:45.544Z,14.13
2019-02-18T17:20:27.165Z,11.65
2019-02-18T17:22:55.701Z,12.03
2019-02-18T17:25:26.592Z,11.97
2019-02-18T17:27:53.677Z,12.67
2019-02-18T17:30:19.509Z,13.67
2019-02-18T17:32:45.564Z,13.63
2019-02-18T17:35:12.178Z,13.73
2019-02-18T17:37:38.338Z,14.03
2019-02-18T17:40:06.088Z,13.83
2019-02-18T17:42:32.066Z,13.83
2019-02-18T17:44:58.170Z,13.30
2019-02-18T17:47:23.998Z,13.30
2019-02-18T17:49:49.806Z,14.10
2019-02-18T17:52:15.625Z,14.50
2019-02-18T17:54:41.541Z,14.07
2019-02-18T17:57:07.403Z,14.63
2019-02-18T17:59:33.225Z,13.80
2019-02-18T18:01:59.049Z,13.87
2019-02-18T18:04:24.878Z,14.07
2019-02-18T18:06:51.206Z,13.13
2019-02-18T18:09:17.050Z,13.63
2019-02-18T18:11:42.894Z,13.70
2019-02-18T18:14:11.074Z,14.00
2019-02-18T18:16:36.920Z,14.67
2019-02-18T18:19:09.162Z,15.93
2019-02-18T18:21:30.528Z,16.27
2019-02-18T18:23:56.465Z,20.80
2019-02-18T18:26:23.125Z,19.23
2019-02-18T18:28:50.881Z,18.70
2019-02-18T18:31:17.076Z,15.57
2019-02-18T18:33:42.905Z,14.77
2019-02-18T18:36:08.762Z,14.17
2019-02-18T18:38:34.709Z,14.00
2019-02-18T18:41:00.545Z,15.27
2019-02-18T18:43:33.609Z,14.67
2019-02-18T18:45:54.189Z,14.83
2019-02-18T18:48:20.134Z,14.80
2019-02-18T18:50:45.982Z,13.60
2019-02-18T18:53:11.798Z,14.80
2019-02-18T18:55:37.636Z,17.37
2019-02-18T18:58:03.500Z,18.80
2019-02-18T19:00:29.391Z,20.77
2019-02-18T19:02:55.321Z,28.00
2019-02-18T19:05:21.219Z,25.60
2019-02-18T19:07:47.037Z,23.03
2019-02-18T19:10:12.838Z,21.57
2019-02-18T19:12:38.810Z,20.17
2019-02-18T19:15:06.593Z,18.10
2019-02-18T19:17:32.840Z,17.77
2019-02-18T19:19:58.666Z,19.73
2019-02-18T19:22:25.085Z,22.47
2019-02-18T19:24:50.986Z,23.27
2019-02-18T19:27:16.801Z,19.47
2019-02-18T19:29:42.667Z,19.47
2019-02-18T19:32:08.499Z,18.23
2019-02-18T19:34:34.320Z,18.87
2019-02-18T19:37:00.153Z,16.97
2019-02-18T19:39:25.989Z,17.63
2019-02-18T19:41:52.505Z,17.17
2019-02-18T19:44:19.884Z,16.17
2019-02-18T19:46:45.894Z,16.97
2019-02-18T19:49:11.741Z,15.37
2019-02-18T19:51:37.545Z,16.00
2019-02-18T19:54:03.358Z,16.53
2019-02-18T19:56:29.156Z,15.73
2019-02-18T19:58:54.974Z,16.40
2019-02-18T20:01:21.397Z,16.60
2019-02-18T20:03:47.259Z,14.23
2019-02-18T20:06:13.075Z,14.77
2019-02-18T20:08:38.932Z,15.13
2019-02-18T20:11:04.758Z,15.10
2019-02-18T20:13:30.586Z,14.57
2019-02-18T20:15:56.423Z,13.97
2019-02-18T20:18:22.252Z,16.20
2019-02-18T20:20:48.185Z,17.50
2019-02-18T20:23:14.138Z,18.17
2019-02-18T20:25:39.958Z,15.33
2019-02-18T20:28:05.871Z,16.27
2019-02-18T20:30:32.867Z,15.63
2019-02-18T20:32:58.942Z,17.13
2019-02-18T20:35:25.777Z,15.93
2019-02-18T20:37:53.986Z,16.37
2019-02-18T20:40:20.398Z,17.57
2019-02-18T20:42:46.211Z,15.07
2019-02-18T20:45:12.518Z,16.67
2019-02-18T20:47:38.442Z,15.47
2019-02-18T20:50:05.686Z,15.10
2019-02-18T20:52:31.490Z,15.77
2019-02-18T20:54:57.327Z,18.63
2019-02-18T20:57:23.146Z,18.43
2019-02-18T20:59:49.676Z,17.50
2019-02-18T21:02:15.858Z,21.37
2019-02-18T21:04:41.913Z,21.37
2019-02-18T21:07:07.726Z,18.83
2019-02-18T21:09:33.580Z,18.27
2019-02-18T21:11:59.382Z,16.47
2019-02-18T21:14:25.236Z,15.83
2019-02-18T21:16:51.059Z,15.17
2019-02-18T21:19:17.298Z,15.40
2019-02-18T21:21:43.124Z,15.53
2019-02-18T21:24:09.941Z,15.50
2019-02-18T21:26:36.760Z,16.10
2019-02-18T21:29:02.781Z,16.43
2019-02-18T21:31:28.586Z,16.63
2019-02-18T21:33:54.414Z,16.87
2019-02-18T21:36:20.218Z,16.93
2019-02-18T21:38:46.655Z,17.50
2019-02-18T21:41:12.466Z,16.40
2019-02-18T21:43:38.292Z,16.80
2019-02-18T21:46:04.201Z,17.57
2019-02-18T21:48:30.700Z,17.57
2019-02-18T21:50:56.675Z,18.37
2019-02-18T21:53:22.490Z,19.77
2019-02-18T21:55:48.378Z,18.83
2019-02-18T21:58:14.761Z,18.00
2019-02-18T22:00:41.038Z,20.03
2019-02-18T22:03:06.890Z,18.83
2019-02-18T22:05:32.838Z,20.13
2019-02-18T22:08:00.352Z,19.70
2019-02-18T22:10:26.385Z,18.17
2019-02-18T22:12:52.206Z,17.93
2019-02-18T22:15:18.027Z,17.47
2019-02-18T22:17:43.887Z,18.57
2019-02-18T22:20:10.808Z,17.47
2019-02-18T22:22:36.658Z,17.30
2019-02-18T22:25:03.281Z,18.90
2019-02-18T22:27:29.085Z,17.17
2019-02-18T22:29:54.898Z,17.50
2019-02-18T22:32:20.708Z,17.70
2019-02-18T22:34:46.513Z,18.37
2019-02-18T22:37:12.328Z,18.73
2019-02-18T22:39:38.129Z,17.50
2019-02-18T22:42:03.993Z,18.93
2019-02-18T22:44:30.306Z,18.00
2019-02-18T22:46:56.179Z,17.17
2019-02-18T22:49:21.990Z,17.83
2019-02-18T22:51:47.810Z,19.10
2019-02-18T22:54:13.636Z,18.77
2019-02-18T22:56:40.698Z,19.23
2019-02-18T22:59:06.786Z,18.57
2019-02-18T23:01:32.585Z,19.03
2019-02-18T23:03:58.622Z,19.40
2019-02-18T23:06:24.438Z,18.67
2019-02-18T23:08:50.255Z,17.73
2019-02-18T23:11:16.105Z,20.60
2019-02-18T23:13:41.905Z,18.87
2019-02-18T23:16:07.733Z,19.23
2019-02-18T23:18:33.550Z,19.50
2019-02-18T23:20:59.357Z,17.87
2019-02-18T23:23:25.174Z,19.43
2019-02-18T23:25:51.077Z,19.33
2019-02-18T23:28:17.193Z,19.77
2019-02-18T23:30:42.998Z,23.03
2019-02-18T23:33:08.817Z,22.20
2019-02-18T23:35:34.622Z,17.53
2019-02-18T23:38:00.749Z,19.83
2019-02-18T23:40:26.554Z,17.57
2019-02-18T23:42:52.407Z,19.07
2019-02-18T23:45:18.211Z,17.93
2019-02-18T23:47:44.059Z,12.43
2019-02-18T23:50:09.869Z,16.23
2019-02-18T23:52:35.689Z,15.47
2019-02-18T23:55:01.513Z,11.77
2019-02-18T23:57:27.430Z,11.63
2019-02-18T23:59:53.265Z,14.30
